sensor_id;sensor_type;location;lat;lon;timestamp;P1;durP1;ratioP1;P2;durP2;ratioP2
71496;SDS011;59317;53.218;5.730;2023-06-19T00:00:17;9.73;;;6.68;;
71496;SDS011;59317;53.218;5.730;2023-06-19T00:02:43;10.25;;;6.38;;
71496;SDS011;59317;53.218;5.730;2023-06-19T00:05:10;9.80;;;5.57;;
71496;SDS011;59317;53.218;5.730;2023-06-19T00:07:36;9.47;;;6.50;;
71496;SDS011;59317;53.218;5.730;2023-06-19T00:10:03;9.70;;;6.20;;
71496;SDS011;59317;53.218;5.730;2023-06-19T00:12:29;9.47;;;5.97;;
71496;SDS011;59317;53.218;5.730;2023-06-19T00:14:55;10.93;;;6.07;;
71496;SDS011;59317;53.218;5.730;2023-06-19T00:17:21;10.73;;;6.63;;
71496;SDS011;59317;53.218;5.730;2023-06-19T00:19:47;9.80;;;6.57;;
71496;SDS011;59317;53.218;5.730;2023-06-19T00:22:13;10.63;;;6.53;;
71496;SDS011;59317;53.218;5.730;2023-06-19T00:24:40;9.40;;;6.13;;
71496;SDS011;59317;53.218;5.730;2023-06-19T00:27:06;10.10;;;6.70;;
71496;SDS011;59317;53.218;5.730;2023-06-19T00:29:32;10.07;;;6.40;;
71496;SDS011;59317;53.218;5.730;2023-06-19T00:31:59;9.30;;;6.53;;
71496;SDS011;59317;53.218;5.730;2023-06-19T00:34:25;10.52;;;6.45;;
71496;SDS011;59317;53.218;5.730;2023-06-19T00:36:51;10.98;;;6.20;;
71496;SDS011;59317;53.218;5.730;2023-06-19T00:39:24;11.07;;;6.47;;
71496;SDS011;59317;53.218;5.730;2023-06-19T00:41:53;9.98;;;6.30;;
71496;SDS011;59317;53.218;5.730;2023-06-19T00:44:19;10.60;;;6.40;;
71496;SDS011;59317;53.218;5.730;2023-06-19T00:46:45;11.10;;;6.55;;
71496;SDS011;59317;53.218;5.730;2023-06-19T00:49:11;9.52;;;5.90;;
71496;SDS011;59317;53.218;5.730;2023-06-19T00:51:37;9.38;;;6.28;;
71496;SDS011;59317;53.218;5.730;2023-06-19T00:54:03;9.07;;;6.15;;
71496;SDS011;59317;53.218;5.730;2023-06-19T00:56:30;10.07;;;6.18;;
71496;SDS011;59317;53.218;5.730;2023-06-19T00:58:56;9.45;;;5.88;;
71496;SDS011;59317;53.218;5.730;2023-06-19T01:01:22;12.82;;;6.18;;
71496;SDS011;59317;53.218;5.730;2023-06-19T01:03:49;9.27;;;5.53;;
71496;SDS011;59317;53.218;5.730;2023-06-19T01:06:20;11.20;;;5.82;;
71496;SDS011;59317;53.218;5.730;2023-06-19T01:08:56;10.00;;;5.78;;
71496;SDS011;59317;53.218;5.730;2023-06-19T01:11:23;9.68;;;5.72;;
71496;SDS011;59317;53.218;5.730;2023-06-19T01:13:59;8.75;;;5.57;;
71496;SDS011;59317;53.218;5.730;2023-06-19T01:16:26;7.78;;;5.10;;
71496;SDS011;59317;53.218;5.730;2023-06-19T01:18:52;9.80;;;5.50;;
71496;SDS011;59317;53.218;5.730;2023-06-19T01:21:18;9.65;;;5.82;;
71496;SDS011;59317;53.218;5.730;2023-06-19T01:23:45;10.45;;;5.97;;
71496;SDS011;59317;53.218;5.730;2023-06-19T01:26:12;9.43;;;5.78;;
71496;SDS011;59317;53.218;5.730;2023-06-19T01:28:39;9.77;;;5.60;;
71496;SDS011;59317;53.218;5.730;2023-06-19T01:31:06;9.88;;;5.57;;
71496;SDS011;59317;53.218;5.730;2023-06-19T01:33:34;9.55;;;6.18;;
71496;SDS011;59317;53.218;5.730;2023-06-19T01:36:02;10.25;;;6.28;;
71496;SDS011;59317;53.218;5.730;2023-06-19T01:38:29;10.60;;;6.20;;
71496;SDS011;59317;53.218;5.730;2023-06-19T01:40:55;10.10;;;6.10;;
71496;SDS011;59317;53.218;5.730;2023-06-19T01:43:23;10.68;;;5.95;;
71496;SDS011;59317;53.218;5.730;2023-06-19T01:45:49;9.82;;;5.90;;
71496;SDS011;59317;53.218;5.730;2023-06-19T01:48:15;8.73;;;5.63;;
71496;SDS011;59317;53.218;5.730;2023-06-19T01:50:45;11.25;;;5.80;;
71496;SDS011;59317;53.218;5.730;2023-06-19T01:53:12;12.15;;;5.47;;
71496;SDS011;59317;53.218;5.730;2023-06-19T01:55:38;9.33;;;5.90;;
71496;SDS011;59317;53.218;5.730;2023-06-19T01:58:04;9.80;;;5.37;;
71496;SDS011;59317;53.218;5.730;2023-06-19T02:00:30;10.27;;;5.83;;
71496;SDS011;59317;53.218;5.730;2023-06-19T02:03:00;9.48;;;5.85;;
71496;SDS011;59317;53.218;5.730;2023-06-19T02:05:26;10.10;;;6.07;;
71496;SDS011;59317;53.218;5.730;2023-06-19T02:07:52;8.45;;;5.47;;
71496;SDS011;59317;53.218;5.730;2023-06-19T02:10:18;9.95;;;5.70;;
71496;SDS011;59317;53.218;5.730;2023-06-19T02:12:44;12.15;;;5.50;;
71496;SDS011;59317;53.218;5.730;2023-06-19T02:15:10;8.65;;;5.18;;
71496;SDS011;59317;53.218;5.730;2023-06-19T02:17:36;10.00;;;5.63;;
71496;SDS011;59317;53.218;5.730;2023-06-19T02:20:02;9.57;;;5.97;;
71496;SDS011;59317;53.218;5.730;2023-06-19T02:22:32;8.48;;;5.43;;
71496;SDS011;59317;53.218;5.730;2023-06-19T02:24:58;9.68;;;5.90;;
71496;SDS011;59317;53.218;5.730;2023-06-19T02:27:24;10.38;;;6.05;;
71496;SDS011;59317;53.218;5.730;2023-06-19T02:29:50;9.68;;;6.07;;
71496;SDS011;59317;53.218;5.730;2023-06-19T02:32:16;9.60;;;6.00;;
71496;SDS011;59317;53.218;5.730;2023-06-19T02:34:43;8.57;;;5.32;;
71496;SDS011;59317;53.218;5.730;2023-06-19T02:37:09;9.23;;;5.87;;
71496;SDS011;59317;53.218;5.730;2023-06-19T02:39:34;8.70;;;5.80;;
71496;SDS011;59317;53.218;5.730;2023-06-19T02:42:00;10.40;;;6.40;;
71496;SDS011;59317;53.218;5.730;2023-06-19T02:44:26;9.93;;;6.30;;
71496;SDS011;59317;53.218;5.730;2023-06-19T02:46:53;10.70;;;6.43;;
71496;SDS011;59317;53.218;5.730;2023-06-19T02:49:19;10.53;;;6.60;;
71496;SDS011;59317;53.218;5.730;2023-06-19T02:51:45;11.30;;;6.30;;
71496;SDS011;59317;53.218;5.730;2023-06-19T02:54:11;11.43;;;7.10;;
71496;SDS011;59317;53.218;5.730;2023-06-19T02:56:37;11.50;;;6.32;;
71496;SDS011;59317;53.218;5.730;2023-06-19T02:59:03;10.40;;;7.03;;
71496;SDS011;59317;53.218;5.730;2023-06-19T03:01:29;12.73;;;7.20;;
71496;SDS011;59317;53.218;5.730;2023-06-19T03:03:56;11.02;;;6.80;;
71496;SDS011;59317;53.218;5.730;2023-06-19T03:06:22;10.77;;;7.45;;
71496;SDS011;59317;53.218;5.730;2023-06-19T03:08:48;12.20;;;7.30;;
71496;SDS011;59317;53.218;5.730;2023-06-19T03:11:14;11.90;;;7.60;;
71496;SDS011;59317;53.218;5.730;2023-06-19T03:13:53;11.80;;;7.53;;
71496;SDS011;59317;53.218;5.730;2023-06-19T03:16:19;10.90;;;7.90;;
71496;SDS011;59317;53.218;5.730;2023-06-19T03:18:46;11.73;;;7.80;;
71496;SDS011;59317;53.218;5.730;2023-06-19T03:21:15;11.38;;;7.38;;
71496;SDS011;59317;53.218;5.730;2023-06-19T03:23:44;11.65;;;7.65;;
71496;SDS011;59317;53.218;5.730;2023-06-19T03:26:10;11.35;;;7.45;;
71496;SDS011;59317;53.218;5.730;2023-06-19T03:28:36;10.35;;;7.45;;
71496;SDS011;59317;53.218;5.730;2023-06-19T03:31:02;11.45;;;7.03;;
71496;SDS011;59317;53.218;5.730;2023-06-19T03:33:28;10.13;;;6.78;;
71496;SDS011;59317;53.218;5.730;2023-06-19T03:35:54;10.18;;;6.20;;
71496;SDS011;59317;53.218;5.730;2023-06-19T03:38:20;10.15;;;6.05;;
71496;SDS011;59317;53.218;5.730;2023-06-19T03:40:47;10.00;;;6.30;;
71496;SDS011;59317;53.218;5.730;2023-06-19T03:43:12;9.88;;;5.22;;
71496;SDS011;59317;53.218;5.730;2023-06-19T03:45:38;8.02;;;4.75;;
71496;SDS011;59317;53.218;5.730;2023-06-19T03:48:04;8.07;;;4.57;;
71496;SDS011;59317;53.218;5.730;2023-06-19T03:50:30;7.25;;;4.32;;
71496;SDS011;59317;53.218;5.730;2023-06-19T03:52:56;7.45;;;3.97;;
71496;SDS011;59317;53.218;5.730;2023-06-19T03:55:22;6.78;;;3.45;;
71496;SDS011;59317;53.218;5.730;2023-06-19T03:57:48;7.60;;;3.40;;
71496;SDS011;59317;53.218;5.730;2023-06-19T04:00:15;7.50;;;3.40;;
71496;SDS011;59317;53.218;5.730;2023-06-19T04:02:43;7.20;;;3.40;;
71496;SDS011;59317;53.218;5.730;2023-06-19T04:05:11;8.07;;;3.38;;
71496;SDS011;59317;53.218;5.730;2023-06-19T04:07:37;6.55;;;3.13;;
71496;SDS011;59317;53.218;5.730;2023-06-19T04:10:03;7.43;;;2.80;;
71496;SDS011;59317;53.218;5.730;2023-06-19T04:12:29;6.45;;;2.70;;
71496;SDS011;59317;53.218;5.730;2023-06-19T04:14:55;7.10;;;2.80;;
71496;SDS011;59317;53.218;5.730;2023-06-19T04:17:21;6.47;;;2.72;;
71496;SDS011;59317;53.218;5.730;2023-06-19T04:19:47;6.30;;;2.58;;
71496;SDS011;59317;53.218;5.730;2023-06-19T04:22:13;7.22;;;2.67;;
71496;SDS011;59317;53.218;5.730;2023-06-19T04:24:39;7.22;;;2.80;;
71496;SDS011;59317;53.218;5.730;2023-06-19T04:27:05;6.07;;;2.80;;
71496;SDS011;59317;53.218;5.730;2023-06-19T04:29:33;6.13;;;2.60;;
71496;SDS011;59317;53.218;5.730;2023-06-19T04:31:59;6.40;;;2.40;;
71496;SDS011;59317;53.218;5.730;2023-06-19T04:34:25;6.00;;;2.40;;
71496;SDS011;59317;53.218;5.730;2023-06-19T04:36:51;5.83;;;2.53;;
71496;SDS011;59317;53.218;5.730;2023-06-19T04:39:17;5.72;;;2.70;;
71496;SDS011;59317;53.218;5.730;2023-06-19T04:41:44;6.80;;;2.90;;
71496;SDS011;59317;53.218;5.730;2023-06-19T04:44:10;6.70;;;3.30;;
71496;SDS011;59317;53.218;5.730;2023-06-19T04:46:40;6.50;;;3.53;;
71496;SDS011;59317;53.218;5.730;2023-06-19T04:49:06;8.77;;;3.53;;
71496;SDS011;59317;53.218;5.730;2023-06-19T04:51:32;8.50;;;4.47;;
71496;SDS011;59317;53.218;5.730;2023-06-19T04:54:01;9.10;;;4.65;;
71496;SDS011;59317;53.218;5.730;2023-06-19T04:56:27;8.65;;;4.65;;
71496;SDS011;59317;53.218;5.730;2023-06-19T04:58:54;7.20;;;4.40;;
71496;SDS011;59317;53.218;5.730;2023-06-19T05:01:21;8.75;;;5.13;;
71496;SDS011;59317;53.218;5.730;2023-06-19T05:03:52;9.20;;;5.30;;
71496;SDS011;59317;53.218;5.730;2023-06-19T05:06:18;9.43;;;5.65;;
71496;SDS011;59317;53.218;5.730;2023-06-19T05:08:44;8.48;;;5.30;;
71496;SDS011;59317;53.218;5.730;2023-06-19T05:11:10;8.50;;;5.75;;
71496;SDS011;59317;53.218;5.730;2023-06-19T05:13:36;9.77;;;6.28;;
71496;SDS011;59317;53.218;5.730;2023-06-19T05:16:02;19.65;;;7.93;;
71496;SDS011;59317;53.218;5.730;2023-06-19T05:18:28;11.00;;;7.13;;
71496;SDS011;59317;53.218;5.730;2023-06-19T05:20:54;11.10;;;7.45;;
71496;SDS011;59317;53.218;5.730;2023-06-19T05:23:20;12.35;;;8.25;;
71496;SDS011;59317;53.218;5.730;2023-06-19T05:25:46;15.18;;;10.23;;
71496;SDS011;59317;53.218;5.730;2023-06-19T05:28:12;16.75;;;11.68;;
71496;SDS011;59317;53.218;5.730;2023-06-19T05:30:38;18.48;;;11.82;;
71496;SDS011;59317;53.218;5.730;2023-06-19T05:33:04;16.13;;;11.55;;
71496;SDS011;59317;53.218;5.730;2023-06-19T05:35:30;19.67;;;15.35;;
71496;SDS011;59317;53.218;5.730;2023-06-19T05:37:57;24.83;;;17.67;;
71496;SDS011;59317;53.218;5.730;2023-06-19T05:40:23;26.23;;;20.63;;
71496;SDS011;59317;53.218;5.730;2023-06-19T05:42:49;25.80;;;21.23;;
71496;SDS011;59317;53.218;5.730;2023-06-19T05:45:15;26.08;;;20.63;;
71496;SDS011;59317;53.218;5.730;2023-06-19T05:47:41;29.58;;;24.10;;
71496;SDS011;59317;53.218;5.730;2023-06-19T05:50:07;28.52;;;23.80;;
71496;SDS011;59317;53.218;5.730;2023-06-19T05:52:33;28.40;;;22.67;;
71496;SDS011;59317;53.218;5.730;2023-06-19T05:54:59;29.93;;;23.23;;
71496;SDS011;59317;53.218;5.730;2023-06-19T05:57:25;31.55;;;24.10;;
71496;SDS011;59317;53.218;5.730;2023-06-19T05:59:51;28.85;;;22.30;;
71496;SDS011;59317;53.218;5.730;2023-06-19T06:02:18;28.98;;;22.50;;
71496;SDS011;59317;53.218;5.730;2023-06-19T06:04:44;27.15;;;21.30;;
71496;SDS011;59317;53.218;5.730;2023-06-19T06:07:10;27.13;;;21.10;;
71496;SDS011;59317;53.218;5.730;2023-06-19T06:09:36;28.90;;;21.15;;
71496;SDS011;59317;53.218;5.730;2023-06-19T06:12:03;29.02;;;22.00;;
71496;SDS011;59317;53.218;5.730;2023-06-19T06:14:29;31.03;;;23.00;;
71496;SDS011;59317;53.218;5.730;2023-06-19T06:16:55;29.87;;;23.57;;
71496;SDS011;59317;53.218;5.730;2023-06-19T06:19:21;30.10;;;23.13;;
71496;SDS011;59317;53.218;5.730;2023-06-19T06:21:51;29.88;;;23.38;;
71496;SDS011;59317;53.218;5.730;2023-06-19T06:24:17;29.33;;;23.47;;
71496;SDS011;59317;53.218;5.730;2023-06-19T06:26:43;30.50;;;22.70;;
71496;SDS011;59317;53.218;5.730;2023-06-19T06:29:09;29.87;;;23.47;;
71496;SDS011;59317;53.218;5.730;2023-06-19T06:31:37;30.50;;;23.90;;
71496;SDS011;59317;53.218;5.730;2023-06-19T06:34:04;32.30;;;24.63;;
71496;SDS011;59317;53.218;5.730;2023-06-19T06:36:30;33.73;;;25.00;;
71496;SDS011;59317;53.218;5.730;2023-06-19T06:38:56;32.70;;;25.10;;
71496;SDS011;59317;53.218;5.730;2023-06-19T06:41:21;33.47;;;25.60;;
71496;SDS011;59317;53.218;5.730;2023-06-19T06:43:47;33.28;;;24.63;;
71496;SDS011;59317;53.218;5.730;2023-06-19T06:46:13;33.03;;;24.23;;
71496;SDS011;59317;53.218;5.730;2023-06-19T06:48:39;36.17;;;25.27;;
71496;SDS011;59317;53.218;5.730;2023-06-19T06:51:05;34.25;;;23.45;;
71496;SDS011;59317;53.218;5.730;2023-06-19T06:53:31;34.90;;;24.10;;
71496;SDS011;59317;53.218;5.730;2023-06-19T06:55:58;34.40;;;22.33;;
71496;SDS011;59317;53.218;5.730;2023-06-19T06:58:28;30.67;;;21.00;;
71496;SDS011;59317;53.218;5.730;2023-06-19T07:00:55;28.02;;;19.08;;
71496;SDS011;59317;53.218;5.730;2023-06-19T07:03:21;32.88;;;22.42;;
71496;SDS011;59317;53.218;5.730;2023-06-19T07:05:47;35.40;;;22.13;;
71496;SDS011;59317;53.218;5.730;2023-06-19T07:08:14;35.30;;;22.13;;
71496;SDS011;59317;53.218;5.730;2023-06-19T07:10:39;37.50;;;22.25;;
71496;SDS011;59317;53.218;5.730;2023-06-19T07:13:05;38.13;;;22.30;;
71496;SDS011;59317;53.218;5.730;2023-06-19T07:15:31;39.17;;;24.27;;
71496;SDS011;59317;53.218;5.730;2023-06-19T07:17:57;36.47;;;22.07;;
71496;SDS011;59317;53.218;5.730;2023-06-19T07:20:23;39.57;;;23.83;;
71496;SDS011;59317;53.218;5.730;2023-06-19T07:22:50;41.27;;;24.07;;
71496;SDS011;59317;53.218;5.730;2023-06-19T07:25:16;42.73;;;23.03;;
71496;SDS011;59317;53.218;5.730;2023-06-19T07:27:43;40.92;;;22.27;;
71496;SDS011;59317;53.218;5.730;2023-06-19T07:30:09;40.65;;;23.08;;
71496;SDS011;59317;53.218;5.730;2023-06-19T07:32:36;42.70;;;22.48;;
71496;SDS011;59317;53.218;5.730;2023-06-19T07:35:02;37.58;;;21.63;;
71496;SDS011;59317;53.218;5.730;2023-06-19T07:37:28;37.30;;;20.30;;
71496;SDS011;59317;53.218;5.730;2023-06-19T07:39:54;35.08;;;21.27;;
71496;SDS011;59317;53.218;5.730;2023-06-19T07:42:21;33.35;;;18.75;;
71496;SDS011;59317;53.218;5.730;2023-06-19T07:44:47;32.38;;;18.52;;
71496;SDS011;59317;53.218;5.730;2023-06-19T07:47:13;30.90;;;17.38;;
71496;SDS011;59317;53.218;5.730;2023-06-19T07:49:39;27.00;;;15.05;;
71496;SDS011;59317;53.218;5.730;2023-06-19T07:52:06;24.67;;;13.77;;
71496;SDS011;59317;53.218;5.730;2023-06-19T07:54:34;26.25;;;15.18;;
71496;SDS011;59317;53.218;5.730;2023-06-19T07:57:00;25.63;;;15.27;;
71496;SDS011;59317;53.218;5.730;2023-06-19T07:59:26;23.00;;;13.52;;
71496;SDS011;59317;53.218;5.730;2023-06-19T08:01:52;22.77;;;14.40;;
71496;SDS011;59317;53.218;5.730;2023-06-19T08:04:18;23.40;;;14.07;;
71496;SDS011;59317;53.218;5.730;2023-06-19T08:06:44;24.97;;;14.40;;
71496;SDS011;59317;53.218;5.730;2023-06-19T08:09:10;22.47;;;14.20;;
71496;SDS011;59317;53.218;5.730;2023-06-19T08:11:36;25.27;;;15.03;;
71496;SDS011;59317;53.218;5.730;2023-06-19T08:14:02;23.97;;;14.27;;
71496;SDS011;59317;53.218;5.730;2023-06-19T08:16:28;25.17;;;16.20;;
71496;SDS011;59317;53.218;5.730;2023-06-19T08:18:54;22.63;;;14.83;;
71496;SDS011;59317;53.218;5.730;2023-06-19T08:21:20;27.97;;;16.10;;
71496;SDS011;59317;53.218;5.730;2023-06-19T08:23:46;25.52;;;16.17;;
71496;SDS011;59317;53.218;5.730;2023-06-19T08:26:13;27.25;;;16.52;;
71496;SDS011;59317;53.218;5.730;2023-06-19T08:28:39;25.33;;;16.42;;
71496;SDS011;59317;53.218;5.730;2023-06-19T08:31:08;24.92;;;15.07;;
71496;SDS011;59317;53.218;5.730;2023-06-19T08:33:35;22.88;;;13.77;;
71496;SDS011;59317;53.218;5.730;2023-06-19T08:36:01;21.60;;;14.37;;
71496;SDS011;59317;53.218;5.730;2023-06-19T08:38:27;23.93;;;14.33;;
71496;SDS011;59317;53.218;5.730;2023-06-19T08:40:53;22.20;;;14.10;;
71496;SDS011;59317;53.218;5.730;2023-06-19T08:43:20;19.42;;;12.35;;
71496;SDS011;59317;53.218;5.730;2023-06-19T08:46:03;23.50;;;12.90;;
71496;SDS011;59317;53.218;5.730;2023-06-19T08:48:36;20.95;;;13.07;;
71496;SDS011;59317;53.218;5.730;2023-06-19T08:51:02;21.70;;;12.98;;
71496;SDS011;59317;53.218;5.730;2023-06-19T08:53:29;20.77;;;13.52;;
71496;SDS011;59317;53.218;5.730;2023-06-19T08:55:55;20.15;;;12.15;;
71496;SDS011;59317;53.218;5.730;2023-06-19T08:58:22;19.85;;;12.95;;
71496;SDS011;59317;53.218;5.730;2023-06-19T09:00:49;20.58;;;12.55;;
71496;SDS011;59317;53.218;5.730;2023-06-19T09:03:19;19.05;;;11.85;;
71496;SDS011;59317;53.218;5.730;2023-06-19T09:05:49;19.00;;;11.97;;
71496;SDS011;59317;53.218;5.730;2023-06-19T09:08:16;19.13;;;12.82;;
71496;SDS011;59317;53.218;5.730;2023-06-19T09:10:42;20.37;;;13.03;;
71496;SDS011;59317;53.218;5.730;2023-06-19T09:13:08;21.52;;;13.80;;
71496;SDS011;59317;53.218;5.730;2023-06-19T09:15:35;20.67;;;14.05;;
71496;SDS011;59317;53.218;5.730;2023-06-19T09:18:05;19.98;;;13.07;;
71496;SDS011;59317;53.218;5.730;2023-06-19T09:20:32;22.63;;;11.83;;
71496;SDS011;59317;53.218;5.730;2023-06-19T09:22:59;19.30;;;13.60;;
71496;SDS011;59317;53.218;5.730;2023-06-19T09:25:25;24.23;;;14.10;;
71496;SDS011;59317;53.218;5.730;2023-06-19T09:27:54;21.65;;;13.43;;
71496;SDS011;59317;53.218;5.730;2023-06-19T09:30:20;23.05;;;13.70;;
71496;SDS011;59317;53.218;5.730;2023-06-19T09:32:47;23.02;;;13.68;;
71496;SDS011;59317;53.218;5.730;2023-06-19T09:35:13;23.00;;;14.73;;
71496;SDS011;59317;53.218;5.730;2023-06-19T09:37:39;22.30;;;13.47;;
71496;SDS011;59317;53.218;5.730;2023-06-19T09:40:05;23.38;;;14.32;;
71496;SDS011;59317;53.218;5.730;2023-06-19T09:42:36;23.63;;;14.00;;
71496;SDS011;59317;53.218;5.730;2023-06-19T09:45:03;24.10;;;14.95;;
71496;SDS011;59317;53.218;5.730;2023-06-19T09:47:31;24.50;;;15.75;;
71496;SDS011;59317;53.218;5.730;2023-06-19T09:49:57;23.02;;;14.32;;
71496;SDS011;59317;53.218;5.730;2023-06-19T09:52:23;24.10;;;15.40;;
71496;SDS011;59317;53.218;5.730;2023-06-19T09:54:50;24.10;;;15.70;;
71496;SDS011;59317;53.218;5.730;2023-06-19T09:57:16;23.45;;;14.88;;
71496;SDS011;59317;53.218;5.730;2023-06-19T09:59:43;22.27;;;14.40;;
71496;SDS011;59317;53.218;5.730;2023-06-19T10:02:11;20.67;;;13.65;;
71496;SDS011;59317;53.218;5.730;2023-06-19T10:04:43;18.42;;;12.30;;
71496;SDS011;59317;53.218;5.730;2023-06-19T10:07:15;19.42;;;12.05;;
71496;SDS011;59317;53.218;5.730;2023-06-19T10:09:54;17.38;;;11.77;;
71496;SDS011;59317;53.218;5.730;2023-06-19T10:12:20;21.05;;;13.50;;
71496;SDS011;59317;53.218;5.730;2023-06-19T10:14:46;21.30;;;13.70;;
71496;SDS011;59317;53.218;5.730;2023-06-19T10:17:16;18.95;;;13.13;;
71496;SDS011;59317;53.218;5.730;2023-06-19T10:19:48;19.33;;;12.82;;
71496;SDS011;59317;53.218;5.730;2023-06-19T10:22:19;23.38;;;14.77;;
71496;SDS011;59317;53.218;5.730;2023-06-19T10:24:50;20.67;;;13.20;;
71496;SDS011;59317;53.218;5.730;2023-06-19T10:27:22;20.40;;;13.85;;
71496;SDS011;59317;53.218;5.730;2023-06-19T10:29:52;22.77;;;15.27;;
71496;SDS011;59317;53.218;5.730;2023-06-19T10:32:18;21.70;;;14.32;;
71496;SDS011;59317;53.218;5.730;2023-06-19T10:34:45;23.70;;;14.50;;
71496;SDS011;59317;53.218;5.730;2023-06-19T10:37:12;23.25;;;15.75;;
71496;SDS011;59317;53.218;5.730;2023-06-19T10:39:38;25.50;;;16.60;;
71496;SDS011;59317;53.218;5.730;2023-06-19T10:42:07;27.37;;;17.03;;
71496;SDS011;59317;53.218;5.730;2023-06-19T10:44:34;28.65;;;18.05;;
71496;SDS011;59317;53.218;5.730;2023-06-19T10:47:00;28.95;;;19.02;;
71496;SDS011;59317;53.218;5.730;2023-06-19T10:49:26;27.27;;;17.63;;
71496;SDS011;59317;53.218;5.730;2023-06-19T10:51:53;28.27;;;17.97;;
71496;SDS011;59317;53.218;5.730;2023-06-19T10:54:24;23.60;;;17.10;;
71496;SDS011;59317;53.218;5.730;2023-06-19T10:56:50;25.67;;;17.10;;
71496;SDS011;59317;53.218;5.730;2023-06-19T10:59:16;23.15;;;15.02;;
71496;SDS011;59317;53.218;5.730;2023-06-19T11:01:44;26.40;;;17.67;;
71496;SDS011;59317;53.218;5.730;2023-06-19T11:04:12;24.33;;;15.87;;
71496;SDS011;59317;53.218;5.730;2023-06-19T11:06:39;20.20;;;13.75;;
71496;SDS011;59317;53.218;5.730;2023-06-19T11:09:06;19.53;;;13.23;;
71496;SDS011;59317;53.218;5.730;2023-06-19T11:14:05;20.60;;;14.27;;
71496;SDS011;59317;53.218;5.730;2023-06-19T11:16:31;20.67;;;13.57;;
71496;SDS011;59317;53.218;5.730;2023-06-19T11:18:58;20.55;;;13.52;;
71496;SDS011;59317;53.218;5.730;2023-06-19T11:21:33;18.80;;;13.10;;
71496;SDS011;59317;53.218;5.730;2023-06-19T11:24:02;18.60;;;12.80;;
71496;SDS011;59317;53.218;5.730;2023-06-19T11:26:28;17.80;;;12.60;;
71496;SDS011;59317;53.218;5.730;2023-06-19T11:28:54;17.47;;;12.90;;
71496;SDS011;59317;53.218;5.730;2023-06-19T11:31:26;16.93;;;11.03;;
71496;SDS011;59317;53.218;5.730;2023-06-19T11:33:56;16.90;;;10.90;;
71496;SDS011;59317;53.218;5.730;2023-06-19T11:36:22;16.67;;;11.52;;
71496;SDS011;59317;53.218;5.730;2023-06-19T11:38:49;13.32;;;9.90;;
71496;SDS011;59317;53.218;5.730;2023-06-19T11:41:24;13.93;;;9.57;;
71496;SDS011;59317;53.218;5.730;2023-06-19T11:43:50;11.68;;;8.48;;
71496;SDS011;59317;53.218;5.730;2023-06-19T11:46:16;13.23;;;9.25;;
71496;SDS011;59317;53.218;5.730;2023-06-19T11:48:44;11.97;;;8.00;;
71496;SDS011;59317;53.218;5.730;2023-06-19T11:51:10;12.20;;;8.77;;
71496;SDS011;59317;53.218;5.730;2023-06-19T11:53:36;12.53;;;8.60;;
71496;SDS011;59317;53.218;5.730;2023-06-19T11:56:02;10.90;;;7.27;;
71496;SDS011;59317;53.218;5.730;2023-06-19T11:58:27;10.67;;;7.10;;
71496;SDS011;59317;53.218;5.730;2023-06-19T12:00:53;11.53;;;7.03;;
71496;SDS011;59317;53.218;5.730;2023-06-19T12:03:21;10.57;;;7.47;;
71496;SDS011;59317;53.218;5.730;2023-06-19T12:05:47;11.13;;;7.70;;
71496;SDS011;59317;53.218;5.730;2023-06-19T12:08:13;11.20;;;7.63;;
71496;SDS011;59317;53.218;5.730;2023-06-19T12:10:39;10.80;;;6.80;;
71496;SDS011;59317;53.218;5.730;2023-06-19T12:13:05;10.73;;;6.75;;
71496;SDS011;59317;53.218;5.730;2023-06-19T12:15:31;10.63;;;7.35;;
71496;SDS011;59317;53.218;5.730;2023-06-19T12:17:57;10.23;;;6.65;;
71496;SDS011;59317;53.218;5.730;2023-06-19T12:20:23;10.15;;;7.22;;
71496;SDS011;59317;53.218;5.730;2023-06-19T12:22:50;14.20;;;5.50;;
71496;SDS011;59317;53.218;5.730;2023-06-19T12:25:16;10.02;;;6.05;;
71496;SDS011;59317;53.218;5.730;2023-06-19T12:27:42;10.32;;;6.38;;
71496;SDS011;59317;53.218;5.730;2023-06-19T12:30:08;11.30;;;6.47;;
71496;SDS011;59317;53.218;5.730;2023-06-19T12:32:34;10.83;;;5.23;;
71496;SDS011;59317;53.218;5.730;2023-06-19T12:35:00;11.93;;;5.87;;
71496;SDS011;59317;53.218;5.730;2023-06-19T12:37:27;13.13;;;5.85;;
71496;SDS011;59317;53.218;5.730;2023-06-19T12:39:54;10.18;;;5.32;;
71496;SDS011;59317;53.218;5.730;2023-06-19T12:42:20;13.35;;;6.53;;
71496;SDS011;59317;53.218;5.730;2023-06-19T12:44:45;11.18;;;6.20;;
71496;SDS011;59317;53.218;5.730;2023-06-19T12:47:12;11.57;;;6.82;;
71496;SDS011;59317;53.218;5.730;2023-06-19T12:49:38;12.30;;;7.07;;
71496;SDS011;59317;53.218;5.730;2023-06-19T12:52:04;11.40;;;7.10;;
71496;SDS011;59317;53.218;5.730;2023-06-19T12:54:30;11.98;;;7.88;;
71496;SDS011;59317;53.218;5.730;2023-06-19T12:56:56;11.90;;;7.35;;
71496;SDS011;59317;53.218;5.730;2023-06-19T12:59:22;12.65;;;6.13;;
71496;SDS011;59317;53.218;5.730;2023-06-19T13:01:48;12.93;;;7.95;;
71496;SDS011;59317;53.218;5.730;2023-06-19T13:04:14;11.10;;;7.22;;
71496;SDS011;59317;53.218;5.730;2023-06-19T13:06:40;11.00;;;7.72;;
71496;SDS011;59317;53.218;5.730;2023-06-19T13:09:06;9.90;;;6.80;;
71496;SDS011;59317;53.218;5.730;2023-06-19T13:11:32;11.77;;;5.60;;
71496;SDS011;59317;53.218;5.730;2023-06-19T13:13:59;11.32;;;6.15;;
71496;SDS011;59317;53.218;5.730;2023-06-19T13:16:25;9.10;;;5.30;;
71496;SDS011;59317;53.218;5.730;2023-06-19T13:18:51;10.68;;;6.35;;
71496;SDS011;59317;53.218;5.730;2023-06-19T13:21:17;10.52;;;6.00;;
71496;SDS011;59317;53.218;5.730;2023-06-19T13:23:44;11.52;;;5.68;;
71496;SDS011;59317;53.218;5.730;2023-06-19T13:26:10;11.20;;;5.70;;
71496;SDS011;59317;53.218;5.730;2023-06-19T13:28:36;10.05;;;5.88;;
71496;SDS011;59317;53.218;5.730;2023-06-19T13:31:02;8.77;;;5.13;;
71496;SDS011;59317;53.218;5.730;2023-06-19T13:33:28;8.33;;;5.17;;
71496;SDS011;59317;53.218;5.730;2023-06-19T13:35:54;9.75;;;5.90;;
71496;SDS011;59317;53.218;5.730;2023-06-19T13:38:20;11.68;;;6.80;;
71496;SDS011;59317;53.218;5.730;2023-06-19T13:40:46;10.68;;;5.95;;
71496;SDS011;59317;53.218;5.730;2023-06-19T13:43:12;10.30;;;5.22;;
71496;SDS011;59317;53.218;5.730;2023-06-19T13:45:39;9.25;;;5.35;;
71496;SDS011;59317;53.218;5.730;2023-06-19T13:48:05;10.68;;;6.43;;
71496;SDS011;59317;53.218;5.730;2023-06-19T13:50:31;9.20;;;4.50;;
71496;SDS011;59317;53.218;5.730;2023-06-19T13:52:58;11.63;;;6.57;;
71496;SDS011;59317;53.218;5.730;2023-06-19T13:55:24;9.38;;;5.18;;
71496;SDS011;59317;53.218;5.730;2023-06-19T13:57:50;11.32;;;6.88;;
71496;SDS011;59317;53.218;5.730;2023-06-19T14:00:17;10.52;;;6.65;;
71496;SDS011;59317;53.218;5.730;2023-06-19T14:02:43;8.88;;;5.30;;
71496;SDS011;59317;53.218;5.730;2023-06-19T14:05:09;7.60;;;4.53;;
71496;SDS011;59317;53.218;5.730;2023-06-19T14:07:35;13.00;;;4.72;;
71496;SDS011;59317;53.218;5.730;2023-06-19T14:10:02;10.67;;;4.90;;
71496;SDS011;59317;53.218;5.730;2023-06-19T14:12:29;8.55;;;4.32;;
71496;SDS011;59317;53.218;5.730;2023-06-19T14:14:55;9.45;;;4.82;;
71496;SDS011;59317;53.218;5.730;2023-06-19T14:17:22;12.48;;;5.32;;
71496;SDS011;59317;53.218;5.730;2023-06-19T14:19:48;11.40;;;5.25;;
71496;SDS011;59317;53.218;5.730;2023-06-19T14:22:15;9.25;;;4.50;;
71496;SDS011;59317;53.218;5.730;2023-06-19T14:24:42;10.48;;;5.93;;
71496;SDS011;59317;53.218;5.730;2023-06-19T14:27:07;9.90;;;5.47;;
71496;SDS011;59317;53.218;5.730;2023-06-19T14:29:33;8.93;;;4.85;;
71496;SDS011;59317;53.218;5.730;2023-06-19T14:32:00;9.40;;;5.13;;